Airfield :
LOGIN :

Register | Disclaimer

   EN    FR    IT 

 










Legend :    VFR   Marginal VFR   IFR   Intensive IFR   Very Intensive IFR
Visi :
Ceiling :
>= 8 km
>= 3000ft
5 to 8 km
1000 to 3000 ft
1500m to 5 km
500 to 1000 ft
800 to 1500m
200 to 500 ft
< 800m
< 200 ft
Symbols :   Thunderstorms  Fog  Heavy snow  Heavy precipitations  Wind > 20 kt
SIGMETs :     Misc.  Thunderstorms  Icing  Turbulence  Mountain Waves  Volcanic Ashes







- Airport Elevation : 598 ft
- IATA code : BQH
- Download approach charts


EGKB - Biggin Hill

CURRENT METAR :
  • 190920Z 06010KT 9999 -DZ FEW016 BKN020 06/03 Q1021

EXPIRED METARs :
  • 190850Z 06012KT 030V100 9999 FEW028 BKN042 06/02 Q1021
  • 190820Z 06012KT 9999 FEW024 BKN030 06/02 Q1021
  • 190750Z 07013KT 030V100 9999 BKN030 06/02 Q1022
  • 190720Z 07011KT 040V100 9999 BKN023 06/02 Q1022
  • 190650Z 08013KT 050V110 9999 BKN025 06/02 Q1022

TAF TAF EGKB
Valid from the 19 at 09:00 until the 19 at 18:00 UTC


190800Z 1909/1918 07015KT 9999 BKN020
PROB30
TEMPO 1909/1912 8000 -SHRA BKN014
PROB30
TEMPO 1910/1918 07017G27KT
PROB40
TEMPO 1912/1918 6000 SHRA
No reported NOTAMs for that airfield.



MET'MAP, your aeronautical weather chart ! - Copyright ORBIFLY December 2007 - Disclaimer

ORBIFLY MET'MAP TEAM :

Programming & Development : Alexandra Zaïnal
Concept & Development : Baudouin d'Aumeries
Co-Development & Prog : Marc-Olivier Méhu
Technical & hardware support : Manuel Goepfert

Contact : metmap@orbifly.com




SOURCES & CREDITS :

   NOAA